Time;durP1;ratioP1;P1;durP2;ratioP2;P2;SDS_P1;SDS_P2;PMS_P1;PMS_P2;Temp;Humidity;BMP_temperature;BMP_pressure;BME280_temperature;BME280_humidity;BME280_pressure;Samples;Min_cycle;Max_cycle;Signal;HPM_P1;HPM_P2
2023/08/06 00:00:02;;;;;;;9.63;5.00;;;;;;;18.06;71.20;97974.63;5015088;28;20025;-83
2023/08/06 00:02:28;;;;;;;5.30;3.30;;;;;;;18.24;70.84;97992.44;5031150;28;20030;-83
2023/08/06 00:04:53;;;;;;;7.78;4.07;;;;;;;18.26;70.62;97984.81;5015225;28;20400;-83
2023/08/06 00:07:18;;;;;;;5.82;3.00;;;;;;;17.70;73.47;97977.63;5014425;28;20061;-83
2023/08/06 00:09:44;;;;;;;5.03;3.17;;;;;;;17.67;72.85;97989.84;5031419;28;20034;-83
2023/08/06 00:12:09;;;;;;;9.02;3.60;;;;;;;18.06;71.96;97983.53;5031132;28;20063;-83
2023/08/06 00:14:42;;;;;;;7.68;3.40;;;;;;;17.78;72.98;97974.94;5032833;28;20045;-83
2023/08/06 00:17:08;;;;;;;4.63;2.95;;;;;;;17.80;73.29;97978.09;5014253;28;20034;-83
2023/08/06 00:19:33;;;;;;;4.65;3.30;;;;;;;17.81;72.67;97971.63;5032764;28;20048;-83
2023/08/06 00:21:58;;;;;;;3.55;2.88;;;;;;;17.56;74.00;97952.69;5032678;28;20033;-83
2023/08/06 00:24:24;;;;;;;4.20;2.95;;;;;;;17.35;74.71;97949.75;4998649;28;20026;-83
2023/08/06 00:26:49;;;;;;;6.60;2.65;;;;;;;17.49;74.03;97949.63;5031161;28;20087;-83
2023/08/06 00:29:14;;;;;;;5.32;3.10;;;;;;;17.06;76.27;97946.78;5030333;28;20041;-83
2023/08/06 00:31:40;;;;;;;7.55;3.25;;;;;;;17.45;74.04;97944.03;5032760;28;20172;-83
2023/08/06 00:34:05;;;;;;;5.50;2.65;;;;;;;17.75;73.05;97934.28;5030959;28;20033;-83
2023/08/06 00:36:31;;;;;;;5.20;3.10;;;;;;;17.89;72.17;97941.13;5014816;28;20397;-84
2023/08/06 00:38:56;;;;;;;5.65;3.50;;;;;;;18.12;71.41;97936.34;5030165;28;20386;-83
2023/08/06 00:41:21;;;;;;;5.82;2.53;;;;;;;18.27;71.06;97933.16;5031145;28;20034;-83
2023/08/06 00:43:47;;;;;;;6.38;2.95;;;;;;;18.29;70.83;97933.63;5030338;28;20033;-83
2023/08/06 00:46:12;;;;;;;5.50;2.50;;;;;;;18.08;70.86;97926.50;5032150;28;20036;-83
2023/08/06 00:48:39;;;;;;;3.53;2.78;;;;;;;17.84;72.37;97930.47;5031120;28;20033;-83
2023/08/06 00:51:05;;;;;;;8.45;3.15;;;;;;;17.82;71.94;97919.19;5031612;28;20052;-84
2023/08/06 00:53:30;;;;;;;7.15;2.55;;;;;;;17.27;75.08;97920.88;5014370;28;20437;-83
2023/08/06 00:55:56;;;;;;;5.15;2.75;;;;;;;17.52;73.30;97916.63;5014392;28;20480;-83
2023/08/06 00:58:21;;;;;;;3.95;2.55;;;;;;;17.28;74.51;97900.84;5030542;28;20036;-83
2023/08/06 01:00:47;;;;;;;5.78;3.08;;;;;;;17.04;74.32;97885.09;5031520;28;20104;-83
2023/08/06 01:03:12;;;;;;;4.75;3.20;;;;;;;16.93;76.64;97907.25;5030968;28;20048;-83
2023/08/06 01:05:38;;;;;;;5.53;3.08;;;;;;;16.74;77.04;97890.56;5030447;28;20093;-83
2023/08/06 01:08:22;;;;;;;6.25;3.00;;;;;;;17.46;73.87;97917.88;4995781;28;20041;-83
2023/08/06 01:10:50;;;;;;;4.65;2.50;;;;;;;17.59;73.54;97898.88;5030390;28;20036;-83
2023/08/06 01:13:40;;;;;;;3.28;2.75;;;;;;;17.40;73.39;97892.97;5031977;28;20040;-83
2023/08/06 01:16:06;;;;;;;7.13;2.83;;;;;;;17.20;74.13;97893.56;5031959;28;20038;-83
2023/08/06 01:18:32;;;;;;;3.95;2.65;;;;;;;17.45;73.17;97882.00;5029121;28;20041;-83
2023/08/06 01:20:57;;;;;;;3.45;3.03;;;;;;;17.59;72.77;97868.38;5030470;28;20025;-83
2023/08/06 01:23:24;;;;;;;11.13;3.45;;;;;;;17.73;72.43;97875.22;5027078;28;20034;-83
2023/08/06 01:26:19;;;;;;;5.80;3.20;;;;;;;17.14;75.20;97887.53;5010693;28;20029;-83
2023/08/06 01:29:03;;;;;;;4.43;3.22;;;;;;;17.20;75.16;97888.16;5030877;28;20029;-84
2023/08/06 01:31:43;;;;;;;4.63;2.05;;;;;;;17.18;73.66;97887.69;5030407;28;20098;-83
2023/08/06 01:34:20;;;;;;;12.85;3.20;;;;;;;17.51;73.26;97880.78;5015263;28;20033;-83
2023/08/06 01:36:46;;;;;;;7.53;2.72;;;;;;;17.20;74.28;97866.59;5029454;28;20041;-83
2023/08/06 01:39:11;;;;;;;5.13;2.83;;;;;;;17.46;73.58;97869.31;5030365;28;20049;-83
2023/08/06 01:41:36;;;;;;;5.65;2.55;;;;;;;17.68;73.15;97863.78;5045904;28;20465;-83
2023/08/06 01:44:02;;;;;;;3.13;2.58;;;;;;;17.66;72.67;97874.91;5028962;28;20554;-84
2023/08/06 01:46:27;;;;;;;8.65;3.28;;;;;;;17.87;72.66;97877.75;5013950;28;20033;-83
2023/08/06 01:48:52;;;;;;;4.95;2.33;;;;;;;17.78;71.90;97874.25;5028793;28;20493;-83
2023/08/06 01:51:18;;;;;;;5.72;2.58;;;;;;;17.72;72.22;97868.22;5025872;28;20030;-83
2023/08/06 01:53:43;;;;;;;3.65;3.35;;;;;;;17.36;73.53;97870.44;5027319;28;20029;-83
2023/08/06 01:56:09;;;;;;;5.60;2.75;;;;;;;17.08;75.41;97874.50;5031183;28;20549;-83
2023/08/06 01:58:34;;;;;;;9.45;2.65;;;;;;;16.70;76.50;97863.44;5030323;28;20036;-83
2023/08/06 02:01:01;;;;;;;3.00;2.70;;;;;;;16.78;75.71;97870.75;5012774;28;20025;-83
2023/08/06 02:03:26;;;;;;;6.70;3.42;;;;;;;16.84;75.75;97860.63;5031210;28;20095;-83
2023/08/06 02:05:52;;;;;;;7.78;3.00;;;;;;;17.39;74.19;97867.06;5018014;28;20037;-83
2023/08/06 02:08:17;;;;;;;4.72;2.60;;;;;;;17.42;73.35;97861.06;5033603;28;20041;-83
2023/08/06 02:10:42;;;;;;;9.95;3.50;;;;;;;17.74;72.57;97857.09;5033108;28;20033;-83
2023/08/06 02:13:07;;;;;;;3.15;2.67;;;;;;;17.84;72.16;97887.28;5014106;28;20102;-83
2023/08/06 02:15:33;;;;;;;9.70;3.80;;;;;;;17.81;72.03;97879.81;5026238;28;20061;-83
2023/08/06 02:17:58;;;;;;;6.40;3.72;;;;;;;17.28;74.01;97863.09;5013821;28;20053;-83
2023/08/06 02:20:24;;;;;;;6.03;2.85;;;;;;;17.49;73.51;97856.00;5014885;28;20109;-83
2023/08/06 02:22:49;;;;;;;3.17;2.88;;;;;;;17.63;72.67;97853.94;5033807;28;20021;-83
2023/08/06 02:25:14;;;;;;;10.05;2.75;;;;;;;17.67;72.55;97852.19;5050153;28;20404;-84
2023/08/06 02:27:40;;;;;;;5.45;2.80;;;;;;;17.68;72.32;97853.78;5049917;28;20070;-83
2023/08/06 02:30:06;;;;;;;3.28;2.83;;;;;;;17.67;72.95;97864.91;5032979;28;20124;-83
2023/08/06 02:32:32;;;;;;;5.55;3.92;;;;;;;17.24;74.49;97843.25;5033175;28;20039;-83
2023/08/06 02:34:57;;;;;;;3.63;3.25;;;;;;;17.24;74.36;97840.56;5033468;28;20091;-83
2023/08/06 02:37:23;;;;;;;5.57;3.22;;;;;;;16.98;75.04;97834.34;5033058;28;20029;-83
2023/08/06 02:39:48;;;;;;;3.88;3.33;;;;;;;16.89;75.60;97830.81;5032886;28;20041;-83
2023/08/06 02:42:13;;;;;;;11.77;5.28;;;;;;;16.75;76.41;97828.28;5033427;28;20033;-83
2023/08/06 02:44:39;;;;;;;4.13;3.67;;;;;;;16.71;75.49;97807.66;5034175;28;20030;-83
2023/08/06 02:47:04;;;;;;;4.57;3.85;;;;;;;17.00;74.29;97814.06;5016375;28;20049;-83
2023/08/06 02:49:30;;;;;;;8.88;3.95;;;;;;;17.14;74.21;97819.31;5012997;28;20032;-83
2023/08/06 02:51:55;;;;;;;12.05;4.60;;;;;;;17.27;73.68;97804.09;5031328;28;20091;-83
2023/08/06 02:54:20;;;;;;;5.57;4.18;;;;;;;17.25;73.84;97807.09;5016436;28;20029;-83
2023/08/06 02:56:46;;;;;;;4.90;3.70;;;;;;;17.22;73.70;97802.34;5032597;28;20112;-83
2023/08/06 02:59:12;;;;;;;9.23;4.20;;;;;;;17.41;73.23;97807.44;5016646;28;20497;-83
2023/08/06 03:01:38;;;;;;;11.43;7.65;;;;;;;17.05;73.43;97786.16;5031750;28;20104;-83
2023/08/06 03:04:04;;;;;;;13.77;6.63;;;;;;;16.80;74.39;97800.34;5033110;28;20525;-83
2023/08/06 03:06:29;;;;;;;10.02;7.68;;;;;;;16.44;75.58;97773.63;5032607;28;20481;-83
2023/08/06 03:08:54;;;;;;;8.85;7.07;;;;;;;16.46;75.22;97793.75;5032302;28;20428;-83
2023/08/06 03:11:20;;;;;;;10.23;7.15;;;;;;;16.40;76.23;97784.22;5032817;28;20029;-83
2023/08/06 03:13:47;;;;;;;7.80;6.93;;;;;;;16.16;78.36;97783.03;5015226;28;20049;-83
2023/08/06 03:16:12;;;;;;;9.90;5.40;;;;;;;15.81;80.51;97775.88;5031612;28;20103;-83
2023/08/06 03:18:38;;;;;;;6.95;4.30;;;;;;;15.90;80.04;97764.03;5032424;28;20460;-83
2023/08/06 03:21:03;;;;;;;6.68;4.90;;;;;;;15.92;80.31;97782.59;5032770;28;20108;-83
2023/08/06 03:23:28;;;;;;;7.68;4.57;;;;;;;15.69;81.79;97781.81;5031689;28;20851;-83
2023/08/06 03:25:54;;;;;;;4.88;4.20;;;;;;;15.42;82.90;97763.88;5032361;28;20030;-83
2023/08/06 03:28:19;;;;;;;6.82;4.35;;;;;;;15.58;80.93;97764.34;5031717;28;20052;-83
2023/08/06 03:30:44;;;;;;;4.75;4.15;;;;;;;15.47;82.83;97771.06;5016099;28;20396;-83
2023/08/06 03:33:10;;;;;;;6.25;4.00;;;;;;;15.66;80.95;97775.13;5032386;28;20075;-83
2023/08/06 03:35:35;;;;;;;6.30;3.90;;;;;;;15.82;80.72;97783.63;5033340;28;20044;-83
2023/08/06 03:38:01;;;;;;;7.47;4.30;;;;;;;15.97;79.24;97769.78;5032031;28;20057;-83
2023/08/06 03:40:26;;;;;;;5.78;3.75;;;;;;;16.23;78.26;97777.97;5014134;28;20030;-83
2023/08/06 03:42:51;;;;;;;9.57;5.05;;;;;;;16.64;76.67;97775.78;5033397;28;20025;-83
2023/08/06 03:45:17;;;;;;;5.25;4.18;;;;;;;16.58;75.93;97768.94;5015256;28;20032;-83
2023/08/06 03:47:42;;;;;;;9.45;3.72;;;;;;;16.74;74.88;97767.38;5015378;28;20029;-83
2023/08/06 03:50:08;;;;;;;8.30;3.95;;;;;;;17.04;73.81;97760.28;5031421;28;20041;-83
2023/08/06 03:52:33;;;;;;;9.80;4.00;;;;;;;17.20;73.85;97772.19;5048593;28;20030;-83
2023/08/06 03:54:59;;;;;;;9.40;3.35;;;;;;;17.08;73.74;97766.66;5033266;28;20030;-84
2023/08/06 03:57:27;;;;;;;6.65;3.72;;;;;;;16.85;73.93;97757.91;5030850;28;20504;-84
2023/08/06 03:59:52;;;;;;;7.00;3.47;;;;;;;17.10;73.13;97765.19;5013515;28;20040;-83
2023/08/06 04:02:18;;;;;;;4.25;3.22;;;;;;;17.12;73.14;97776.47;5027388;28;20029;-83
2023/08/06 04:04:43;;;;;;;5.53;2.95;;;;;;;16.67;73.86;97766.25;5027441;28;20065;-83
2023/08/06 04:07:08;;;;;;;4.25;3.00;;;;;;;16.67;74.36;97777.03;5025789;28;20060;-83
2023/08/06 04:09:34;;;;;;;7.68;3.40;;;;;;;16.71;74.08;97776.09;5014038;28;20036;-83
2023/08/06 04:12:01;;;;;;;3.45;3.15;;;;;;;16.04;75.26;97766.63;5032273;28;20039;-82
2023/08/06 04:14:26;;;;;;;5.30;3.30;;;;;;;16.17;74.72;97768.44;5014485;28;20549;-83
2023/08/06 04:16:52;;;;;;;5.15;4.22;;;;;;;15.43;78.18;97753.91;5030700;28;20036;-83
2023/08/06 04:19:17;;;;;;;4.45;3.28;;;;;;;15.62;76.91;97762.59;5014272;28;20029;-83
2023/08/06 04:21:42;;;;;;;3.45;3.15;;;;;;;15.99;76.50;97766.78;5032631;28;20481;-83
2023/08/06 04:24:08;;;;;;;7.85;2.63;;;;;;;16.35;75.50;97772.78;5031454;28;20031;-83
2023/08/06 04:26:33;;;;;;;7.75;3.05;;;;;;;16.57;74.39;97753.88;5031308;28;20064;-83
2023/08/06 04:28:59;;;;;;;4.22;3.15;;;;;;;16.80;74.07;97776.91;5030366;28;20029;-83
2023/08/06 04:31:24;;;;;;;5.72;2.90;;;;;;;16.87;73.50;97774.53;5030503;28;20623;-83
2023/08/06 04:33:49;;;;;;;4.03;2.30;;;;;;;16.77;73.54;97747.09;5032338;28;20029;-84
2023/08/06 04:36:15;;;;;;;3.15;2.78;;;;;;;16.81;73.23;97761.53;5031231;28;20038;-83
2023/08/06 04:38:44;;;;;;;3.42;2.88;;;;;;;16.56;73.62;97760.38;5032212;28;20444;-83
2023/08/06 04:41:10;;;;;;;4.80;2.95;;;;;;;16.77;73.82;97761.38;5031399;28;20038;-83
2023/08/06 04:43:35;;;;;;;7.40;2.78;;;;;;;16.81;73.37;97761.53;5046593;28;20041;-83
2023/08/06 04:46:01;;;;;;;4.63;2.72;;;;;;;16.93;73.29;97761.69;5030874;28;20044;-83
2023/08/06 04:48:26;;;;;;;6.25;2.70;;;;;;;16.80;73.26;97755.34;5030338;28;20056;-83
2023/08/06 04:50:52;;;;;;;3.67;2.40;;;;;;;16.81;73.41;97756.16;5030188;28;20033;-83
2023/08/06 04:53:17;;;;;;;6.78;3.47;;;;;;;16.53;74.17;97760.22;5029615;28;20025;-83
2023/08/06 04:55:42;;;;;;;4.82;3.03;;;;;;;16.08;75.96;97754.16;5025311;28;20041;-83
2023/08/06 04:58:10;;;;;;;4.30;3.10;;;;;;;16.46;74.52;97760.63;5012187;28;20022;-83
2023/08/06 05:00:35;;;;;;;4.93;2.90;;;;;;;15.83;76.14;97746.75;5027404;28;20056;-84
2023/08/06 05:03:01;;;;;;;4.97;2.95;;;;;;;15.63;77.83;97748.88;5014827;28;20025;-82
2023/08/06 05:05:27;;;;;;;4.22;2.92;;;;;;;16.17;76.40;97753.09;5018075;28;20033;-83
2023/08/06 05:07:56;;;;;;;3.00;2.70;;;;;;;16.21;75.83;97750.56;5011806;28;20037;-83
2023/08/06 05:10:21;;;;;;;4.28;2.42;;;;;;;16.39;75.17;97757.59;5010721;28;20033;-84
2023/08/06 05:12:46;;;;;;;4.53;2.78;;;;;;;16.53;75.13;97752.13;5046415;28;20033;-83
2023/08/06 05:15:12;;;;;;;2.78;2.58;;;;;;;16.23;75.88;97762.59;5030276;28;20037;-82
2023/08/06 05:17:37;;;;;;;3.90;3.33;;;;;;;15.72;78.19;97763.16;5014007;28;20025;-81
2023/08/06 05:20:04;;;;;;;3.58;2.70;;;;;;;15.37;79.61;97753.25;5031195;28;20120;-82
2023/08/06 05:22:29;;;;;;;5.63;3.08;;;;;;;15.40;80.24;97754.50;5045390;28;20055;-82
2023/08/06 05:24:54;;;;;;;3.22;2.58;;;;;;;15.89;78.20;97746.31;5033868;28;20040;-82
2023/08/06 05:27:20;;;;;;;3.42;2.97;;;;;;;16.05;77.07;97738.63;5033677;28;20029;-81
2023/08/06 05:29:45;;;;;;;4.72;3.25;;;;;;;16.17;76.50;97755.78;5034571;28;20057;-82
2023/08/06 05:32:11;;;;;;;5.63;2.50;;;;;;;16.32;76.82;97765.34;5030489;28;20038;-82
2023/08/06 05:34:36;;;;;;;3.42;2.90;;;;;;;16.59;76.43;97778.59;5030205;28;20061;-81
2023/08/06 05:37:03;;;;;;;5.65;2.72;;;;;;;16.78;75.44;97773.72;5031287;28;20458;-82
2023/08/06 05:39:28;;;;;;;5.45;3.45;;;;;;;16.32;78.78;97779.59;5029747;28;20057;-81
2023/08/06 05:41:54;;;;;;;9.50;3.50;;;;;;;15.97;80.22;97771.66;5030202;28;20072;-81
2023/08/06 05:44:20;;;;;;;4.55;3.55;;;;;;;15.59;82.72;97780.19;5031604;28;20033;-82
2023/08/06 05:46:45;;;;;;;4.75;2.70;;;;;;;16.21;78.30;97769.41;5029928;28;20033;-81
2023/08/06 05:49:12;;;;;;;4.90;2.97;;;;;;;16.20;79.33;97775.91;5029422;28;20033;-81
2023/08/06 05:51:38;;;;;;;3.67;3.03;;;;;;;15.92;80.83;97756.47;5031212;28;20041;-81
2023/08/06 05:54:03;;;;;;;3.92;3.13;;;;;;;16.21;79.13;97769.41;5030198;28;20033;-82
2023/08/06 05:56:28;;;;;;;3.30;2.83;;;;;;;16.56;76.93;97762.25;5015706;28;20034;-81
2023/08/06 05:58:54;;;;;;;4.60;2.75;;;;;;;16.67;76.62;97766.25;5034279;28;20033;-82
2023/08/06 06:01:19;;;;;;;8.02;3.05;;;;;;;16.20;79.98;97770.53;4996849;28;20057;-82
2023/08/06 06:03:44;;;;;;;4.70;3.08;;;;;;;15.84;82.32;97759.91;5031323;28;20229;-81
2023/08/06 06:06:10;;;;;;;6.40;2.90;;;;;;;16.39;78.15;97750.31;5030459;28;20030;-82
2023/08/06 06:08:35;;;;;;;3.47;3.17;;;;;;;16.14;80.71;97764.47;5029936;28;20037;-81
2023/08/06 06:11:00;;;;;;;3.47;3.17;;;;;;;15.85;82.76;97758.81;5030080;28;20695;-81
2023/08/06 06:13:26;;;;;;;5.18;3.20;;;;;;;16.31;79.24;97753.78;5029931;28;20536;-81
2023/08/06 06:15:55;;;;;;;8.45;2.65;;;;;;;16.25;79.20;97748.84;5031289;28;20036;-82
2023/08/06 06:18:20;;;;;;;3.67;3.15;;;;;;;16.47;78.70;97737.97;5030573;28;20037;-82
2023/08/06 06:20:45;;;;;;;4.53;3.03;;;;;;;16.14;81.04;97731.38;5030330;28;20037;-82
2023/08/06 06:23:11;;;;;;;3.67;3.38;;;;;;;16.03;81.65;97725.47;5030316;28;20106;-82
2023/08/06 06:25:36;;;;;;;8.68;3.70;;;;;;;16.18;80.37;97725.06;5030069;28;20033;-81
2023/08/06 06:28:01;;;;;;;6.40;3.50;;;;;;;16.31;81.30;97737.63;5013240;28;20036;-81
2023/08/06 06:30:27;;;;;;;5.60;2.95;;;;;;;16.67;78.02;97744.69;5030505;28;20116;-81
2023/08/06 06:32:52;;;;;;;5.55;3.30;;;;;;;16.63;80.36;97739.16;5030347;28;20026;-81
2023/08/06 06:35:18;;;;;;;4.70;3.65;;;;;;;16.59;81.83;97730.13;5031376;28;20026;-82
2023/08/06 06:37:43;;;;;;;2.90;2.55;;;;;;;16.84;77.71;97721.25;4996984;28;20045;-82
2023/08/06 06:40:09;;;;;;;4.68;3.53;;;;;;;16.50;81.16;97707.75;5030065;28;20083;-82
2023/08/06 06:42:34;;;;;;;4.78;3.45;;;;;;;16.42;81.01;97716.59;5029123;28;20025;-82
2023/08/06 06:44:59;;;;;;;6.82;3.55;;;;;;;16.81;79.37;97721.09;5029410;28;20460;-82
2023/08/06 06:47:25;;;;;;;4.13;3.70;;;;;;;16.90;79.12;97721.91;5027922;28;20033;-82
2023/08/06 06:49:51;;;;;;;5.90;3.58;;;;;;;16.99;78.25;97725.41;5030603;28;20033;-82
2023/08/06 06:52:16;;;;;;;3.67;3.38;;;;;;;17.05;78.62;97724.13;5033207;28;20049;-81
2023/08/06 06:54:42;;;;;;;3.80;2.75;;;;;;;17.56;75.49;97721.41;5016567;28;20437;-82
2023/08/06 06:57:07;;;;;;;3.78;3.28;;;;;;;17.25;78.01;97720.81;5034255;28;20045;-82
2023/08/06 06:59:32;;;;;;;4.18;3.78;;;;;;;17.20;77.91;97727.16;5012138;28;20117;-81
2023/08/06 07:01:58;;;;;;;3.22;2.92;;;;;;;17.58;75.00;97724.56;5013419;28;20033;-82
2023/08/06 07:04:23;;;;;;;4.43;3.15;;;;;;;17.14;78.07;97719.53;5024167;28;20022;-82
2023/08/06 07:06:48;;;;;;;3.20;2.90;;;;;;;17.49;75.72;97707.59;5012984;28;20068;-82
2023/08/06 07:09:14;;;;;;;7.05;4.00;;;;;;;16.92;79.24;97719.69;5028297;28;20091;-81
2023/08/06 07:11:39;;;;;;;3.13;2.83;;;;;;;16.85;80.02;97711.28;5034005;28;20029;-81
2023/08/06 07:14:04;;;;;;;4.07;3.70;;;;;;;17.07;81.09;97713.81;5033090;28;20504;-81
2023/08/06 07:16:30;;;;;;;6.55;3.03;;;;;;;17.42;76.64;97698.41;5034248;28;20025;-82
2023/08/06 07:18:55;;;;;;;3.88;3.40;;;;;;;17.66;75.78;97706.78;5033078;28;20033;-82
2023/08/06 07:21:21;;;;;;;8.40;3.88;;;;;;;17.37;77.96;97712.03;5032607;28;20065;-83
2023/08/06 07:23:46;;;;;;;2.80;2.60;;;;;;;17.86;74.61;97689.91;5034131;28;20434;-82
2023/08/06 07:26:11;;;;;;;5.55;4.40;;;;;;;17.24;78.15;97698.44;5016837;28;20033;-81
2023/08/06 07:28:37;;;;;;;3.55;3.25;;;;;;;17.60;77.26;97706.19;5032725;28;20045;-82
2023/08/06 07:31:05;;;;;;;4.47;3.67;;;;;;;17.75;76.06;97684.06;5016148;28;20026;-82
2023/08/06 07:33:30;;;;;;;5.65;3.25;;;;;;;18.15;75.34;97694.53;5015945;28;20384;-82
2023/08/06 07:35:55;;;;;;;3.33;3.03;;;;;;;17.97;77.10;97693.81;5032399;28;20040;-82
2023/08/06 07:38:21;;;;;;;4.13;3.13;;;;;;;17.53;76.52;97686.97;5015271;28;20029;-82
2023/08/06 07:40:46;;;;;;;3.78;3.47;;;;;;;17.22;78.29;97676.38;4999954;28;20033;-82
2023/08/06 07:43:12;;;;;;;3.13;2.83;;;;;;;17.52;77.87;97674.59;5016264;28;20393;-82
2023/08/06 07:45:38;;;;;;;3.75;3.03;;;;;;;17.54;77.30;97677.00;5032568;28;20040;-81
2023/08/06 07:48:04;;;;;;;4.57;3.35;;;;;;;17.83;77.60;97680.53;5033431;28;20098;-81
2023/08/06 07:50:29;;;;;;;4.00;3.25;;;;;;;17.83;76.50;97667.03;5015778;28;20079;-82
2023/08/06 07:52:55;;;;;;;7.70;3.28;;;;;;;18.00;76.21;97678.88;5032157;28;20033;-81
2023/08/06 07:55:20;;;;;;;5.00;4.00;;;;;;;18.04;76.39;97685.22;5032043;28;20477;-82
2023/08/06 07:57:45;;;;;;;3.88;3.50;;;;;;;18.05;77.70;97676.78;5015239;28;20045;-82
2023/08/06 08:00:11;;;;;;;6.45;2.85;;;;;;;18.66;74.54;97689.66;5029511;28;20025;-82
2023/08/06 08:02:36;;;;;;;3.58;3.08;;;;;;;18.80;74.69;97678.59;5030756;28;20112;-81
2023/08/06 08:05:02;;;;;;;6.13;3.75;;;;;;;19.00;73.03;97671.59;4999447;28;20030;-82
2023/08/06 08:07:30;;;;;;;3.65;3.35;;;;;;;18.80;73.33;97675.09;5032873;28;20104;-82
2023/08/06 08:09:55;;;;;;;5.75;3.08;;;;;;;18.65;73.67;97665.66;5032386;28;20043;-81
2023/08/06 08:12:21;;;;;;;5.65;3.05;;;;;;;19.16;73.19;97664.41;5020656;28;20030;-82
2023/08/06 08:14:46;;;;;;;4.22;3.80;;;;;;;19.12;72.75;97663.50;4979220;28;20026;-82
2023/08/06 08:17:12;;;;;;;4.47;3.42;;;;;;;18.80;71.64;97672.38;4995330;28;20104;-82
2023/08/06 08:19:38;;;;;;;4.60;3.88;;;;;;;18.58;73.29;97660.78;4978910;28;20034;-81
2023/08/06 08:22:03;;;;;;;4.70;3.40;;;;;;;18.94;73.23;97664.78;5031430;28;20390;-81
2023/08/06 08:24:30;;;;;;;3.55;3.13;;;;;;;19.27;72.27;97671.78;5031651;28;20029;-82
2023/08/06 08:26:56;;;;;;;3.60;3.03;;;;;;;19.14;71.20;97662.06;5031288;28;20079;-82
2023/08/06 08:29:21;;;;;;;3.15;2.80;;;;;;;19.50;71.90;97660.63;5019188;28;20037;-81
2023/08/06 08:31:49;;;;;;;3.00;2.72;;;;;;;19.67;69.23;97644.97;5026912;28;20099;-82
2023/08/06 08:34:15;;;;;;;6.13;3.40;;;;;;;19.57;70.87;97661.63;5015165;28;20569;-82
2023/08/06 08:36:40;;;;;;;3.42;2.85;;;;;;;19.97;69.84;97650.97;5014878;28;20028;-82
2023/08/06 08:39:06;;;;;;;3.15;2.85;;;;;;;20.18;68.81;97662.50;5041143;28;20170;-82
2023/08/06 08:41:32;;;;;;;2.95;2.65;;;;;;;20.15;69.03;97660.47;5052813;28;20040;-82
2023/08/06 08:44:02;;;;;;;2.88;2.63;;;;;;;20.24;67.93;97669.31;5051759;28;20029;-82
2023/08/06 08:46:30;;;;;;;4.20;2.50;;;;;;;19.98;67.78;97649.84;5035603;28;20033;-82
2023/08/06 08:48:56;;;;;;;3.17;2.70;;;;;;;20.31;68.05;97664.13;5032962;28;20049;-82
2023/08/06 08:51:23;;;;;;;5.00;2.47;;;;;;;20.09;68.40;97657.16;5047973;28;20370;-82
2023/08/06 08:53:50;;;;;;;3.13;2.58;;;;;;;20.18;68.01;97659.78;5031034;28;20120;-82
2023/08/06 08:56:16;;;;;;;3.05;2.80;;;;;;;20.06;67.88;97666.00;5031508;28;20037;-82
2023/08/06 08:58:41;;;;;;;3.47;2.80;;;;;;;19.93;68.22;97645.44;5030771;28;20036;-82
2023/08/06 09:01:08;;;;;;;3.03;2.30;;;;;;;20.08;68.32;97663.75;5030278;28;20048;-82
2023/08/06 09:03:35;;;;;;;2.30;2.10;;;;;;;20.09;68.21;97656.41;5029497;28;20519;-82
2023/08/06 09:06:02;;;;;;;3.90;2.53;;;;;;;20.07;68.23;97655.97;5032246;28;20059;-82
2023/08/06 09:08:36;;;;;;;4.32;3.10;;;;;;;20.21;67.61;97656.41;5030460;28;20037;-82
2023/08/06 09:11:02;;;;;;;2.28;2.05;;;;;;;20.28;67.61;97662.06;5030150;28;20025;-82
2023/08/06 09:13:28;;;;;;;4.95;2.65;;;;;;;20.33;67.49;97656.44;5029909;28;20125;-82
2023/08/06 09:15:53;;;;;;;3.95;2.67;;;;;;;20.29;66.60;97639.25;5031509;28;20105;-82
2023/08/06 09:18:30;;;;;;;2.80;2.45;;;;;;;20.32;66.72;97643.19;5013211;28;20033;-82
2023/08/06 09:20:56;;;;;;;7.90;3.30;;;;;;;20.47;66.65;97651.41;5014225;28;20036;-82
2023/08/06 09:23:29;;;;;;;4.10;2.50;;;;;;;20.36;66.80;97635.97;4994543;28;20025;-82
2023/08/06 09:25:55;;;;;;;3.55;2.65;;;;;;;20.63;65.69;97656.94;5011946;28;20021;-82
2023/08/06 09:28:20;;;;;;;3.83;2.97;;;;;;;20.68;65.28;97645.84;5019243;28;20048;-82
2023/08/06 09:30:47;;;;;;;8.88;3.65;;;;;;;20.70;65.23;97641.69;5030355;28;20520;-82
2023/08/06 09:33:18;;;;;;;3.28;2.30;;;;;;;20.82;64.53;97625.34;5031798;28;20437;-82
2023/08/06 09:35:43;;;;;;;6.07;2.50;;;;;;;21.02;66.09;97648.00;5030172;28;20029;-82
2023/08/06 09:38:10;;;;;;;2.58;2.38;;;;;;;21.12;64.47;97649.47;5017807;28;20025;-82
2023/08/06 09:40:36;;;;;;;3.58;2.40;;;;;;;21.17;64.51;97651.91;5031553;28;20059;-82
2023/08/06 09:43:02;;;;;;;2.55;2.35;;;;;;;21.16;64.29;97637.56;5030471;28;20087;-82
2023/08/06 09:45:32;;;;;;;3.38;2.00;;;;;;;21.15;64.37;97633.28;5030147;28;20022;-81
2023/08/06 09:47:58;;;;;;;2.38;2.20;;;;;;;21.26;64.15;97645.22;5029976;28;20369;-81
2023/08/06 09:50:31;;;;;;;3.88;2.42;;;;;;;21.24;64.53;97641.25;5030216;28;20029;-82
2023/08/06 09:52:58;;;;;;;2.53;2.33;;;;;;;21.30;63.71;97635.22;5016360;28;20033;-82
2023/08/06 09:55:26;;;;;;;3.08;2.08;;;;;;;21.31;63.11;97636.81;5030112;28;20044;-82
2023/08/06 09:57:52;;;;;;;2.40;2.20;;;;;;;21.26;62.22;97634.34;5029704;28;20031;-82
2023/08/06 10:00:17;;;;;;;3.88;2.20;;;;;;;21.36;63.26;97627.63;5031234;28;20108;-82
2023/08/06 10:02:43;;;;;;;2.95;2.35;;;;;;;21.40;62.45;97613.03;5013304;28;20029;-82
2023/08/06 10:05:09;;;;;;;2.67;2.25;;;;;;;21.46;62.32;97614.34;5029697;28;20030;-82
2023/08/06 10:07:35;;;;;;;3.42;2.40;;;;;;;21.52;60.62;97610.22;5013162;28;20035;-82
2023/08/06 10:10:02;;;;;;;2.38;2.10;;;;;;;21.46;60.68;97619.75;5027582;28;20025;-82
2023/08/06 10:12:31;;;;;;;3.35;2.50;;;;;;;21.53;62.29;97595.50;5027348;28;20057;-82
2023/08/06 10:14:59;;;;;;;2.72;2.38;;;;;;;21.95;62.61;97608.59;5029896;28;20040;-82
2023/08/06 10:17:25;;;;;;;2.90;2.22;;;;;;;22.04;61.98;97609.19;5031132;28;20029;-82
2023/08/06 10:19:51;;;;;;;4.10;2.35;;;;;;;21.93;61.94;97594.56;5029976;28;20034;-82
2023/08/06 10:22:18;;;;;;;3.05;2.22;;;;;;;21.72;62.46;97578.50;5028811;28;20059;-82
2023/08/06 10:24:51;;;;;;;4.78;2.58;;;;;;;21.88;62.95;97605.69;5029226;28;20033;-82
2023/08/06 10:27:32;;;;;;;2.67;2.47;;;;;;;21.87;62.53;97604.91;5031604;28;20041;-82
2023/08/06 10:30:21;;;;;;;2.40;2.20;;;;;;;21.69;62.21;97603.63;5032367;28;20559;-82
2023/08/06 10:32:48;;;;;;;2.80;2.10;;;;;;;21.58;59.67;97597.94;5034151;28;20039;-82
2023/08/06 10:35:37;;;;;;;4.28;2.30;;;;;;;21.41;61.36;97584.72;5033530;28;20393;-81
2023/08/06 10:38:14;;;;;;;2.60;2.05;;;;;;;21.56;59.95;97583.13;5034648;28;20026;-81
2023/08/06 10:40:41;;;;;;;2.08;1.88;;;;;;;21.84;61.54;97580.38;5033850;28;20040;-82
2023/08/06 10:43:10;;;;;;;3.33;2.47;;;;;;;22.07;60.78;97570.41;5016370;28;20040;-82
2023/08/06 10:45:37;;;;;;;2.40;2.17;;;;;;;22.39;60.38;97578.13;5031453;28;20461;-82
2023/08/06 10:48:03;;;;;;;6.00;2.33;;;;;;;22.56;60.36;97584.31;5034230;28;20132;-82
2023/08/06 10:50:31;;;;;;;2.95;2.08;;;;;;;22.74;59.96;97572.66;5034715;28;20064;-82
2023/08/06 10:52:57;;;;;;;5.18;2.22;;;;;;;22.92;59.47;97564.84;5024902;28;20518;-82
2023/08/06 10:55:27;;;;;;;2.47;2.15;;;;;;;22.83;57.54;97561.56;4996735;28;20108;-82
2023/08/06 10:57:53;;;;;;;3.53;2.67;;;;;;;22.61;56.48;97568.53;5019626;28;20053;-82
2023/08/06 11:00:20;;;;;;;3.33;2.25;;;;;;;22.91;58.87;97550.47;5032364;28;20408;-82
2023/08/06 11:02:47;;;;;;;2.30;2.10;;;;;;;22.94;56.43;97559.84;5032984;28;20032;-82
2023/08/06 11:05:13;;;;;;;3.08;2.20;;;;;;;22.65;55.54;97553.06;5033143;28;20025;-82
2023/08/06 11:07:39;;;;;;;2.05;1.95;;;;;;;22.69;59.58;97558.59;5015581;28;21633;-82
2023/08/06 11:10:06;;;;;;;2.00;1.80;;;;;;;22.91;59.52;97541.53;5032856;28;20025;-82
2023/08/06 11:12:32;;;;;;;2.42;2.20;;;;;;;22.56;56.39;97551.69;5016524;28;20029;-81
2023/08/06 11:14:58;;;;;;;2.85;2.30;;;;;;;22.09;60.73;97549.09;5033241;28;20080;-82
2023/08/06 11:17:24;;;;;;;3.88;2.35;;;;;;;22.74;59.26;97534.59;5032590;28;20416;-82
2023/08/06 11:19:50;;;;;;;2.80;1.90;;;;;;;23.33;58.09;97546.97;5032013;28;20033;-82
2023/08/06 11:22:16;;;;;;;2.08;1.60;;;;;;;23.54;57.46;97533.72;5032731;28;20516;-82
2023/08/06 11:24:41;;;;;;;2.15;1.95;;;;;;;23.97;56.28;97538.66;5031663;28;20053;-82
2023/08/06 11:27:13;;;;;;;5.20;2.10;;;;;;;24.18;55.83;97535.50;5032439;28;20030;-82
2023/08/06 11:29:40;;;;;;;5.53;3.33;;;;;;;24.18;55.32;97516.41;5032632;28;20116;-82